Time;durP1;ratioP1;P1;durP2;ratioP2;P2;SDS_P1;SDS_P2;PMS_P1;PMS_P2;Temp;Humidity;BMP_temperature;BMP_pressure;BME280_temperature;BME280_humidity;BME280_pressure;Samples;Min_cycle;Max_cycle;Signal;HPM_P1;HPM_P2
2022/10/20 07:08:08;;;;;;;8.60;5.43;;;;;;;;;;6221194;22;20462;-80
2022/10/20 08:45:17;;;;;;;6.80;4.47;;;;;;;;;;6216924;23;20051;-84
2022/10/20 08:47:44;;;;;;;4.90;4.40;;;;;;;;;;6246936;23;20049;-85
2022/10/20 08:50:15;;;;;;;7.35;4.03;;;;;;;;;;6248328;22;20079;-81
2022/10/20 08:52:41;;;;;;;3.90;3.50;;;;;;;;;;6255946;23;20004;-93
2022/10/20 08:55:26;;;;;;;6.10;4.47;;;;;;;;;;6258838;23;19992;-92
2022/10/20 08:58:00;;;;;;;7.03;4.22;;;;;;;;;;6250267;23;20004;-90
2022/10/20 09:00:26;;;;;;;7.80;4.00;;;;;;;;;;6221764;23;20299;-87
2022/10/20 09:02:51;;;;;;;7.28;4.10;;;;;;;;;;6248337;23;20080;-91
2022/10/20 09:05:22;;;;;;;5.45;4.10;;;;;;;;;;6248821;23;19996;-90
2022/10/20 09:07:48;;;;;;;5.25;3.83;;;;;;;;;;6248518;23;20004;-88
2022/10/20 09:10:36;;;;;;;7.90;3.50;;;;;;;;;;6248158;22;20008;-92
2022/10/20 09:13:10;;;;;;;4.10;3.58;;;;;;;;;;6251116;23;20011;-94
2022/10/20 09:15:36;;;;;;;5.30;3.30;;;;;;;;;;6249745;23;20000;-93
2022/10/20 09:18:09;;;;;;;5.50;3.65;;;;;;;;;;6222735;23;20010;-89
2022/10/20 09:20:43;;;;;;;5.72;3.53;;;;;;;;;;6248450;22;20004;-84
2022/10/20 09:23:19;;;;;;;8.35;3.72;;;;;;;;;;6247989;23;20032;-88
2022/10/20 09:25:46;;;;;;;7.15;4.18;;;;;;;;;;6248494;23;20000;-80
2022/10/20 09:28:26;;;;;;;39.15;6.60;;;;;;;;;;6247912;23;20075;-87
2022/10/20 09:30:55;;;;;;;7.55;3.65;;;;;;;;;;6247768;22;20008;-80
2022/10/20 09:33:21;;;;;;;;;;;;;;;;;;6248230;23;20007;-81
2022/10/20 09:35:47;;;;;;;4.47;3.43;;;;;;;;;;6247808;23;19915;-80
2022/10/20 09:38:25;;;;;;;12.57;7.50;;;;;;;;;;6247877;23;20217;-86
2022/10/20 09:40:59;;;;;;;20.40;12.20;;;;;;;;;;6247684;22;20008;-83
2022/10/20 09:43:26;;;;;;;8.50;4.50;;;;;;;;;;6248864;23;20069;-82
2022/10/20 09:46:03;;;;;;;6.82;4.78;;;;;;;;;;6247362;23;20473;-83
2022/10/20 09:48:32;;;;;;;28.75;14.77;;;;;;;;;;6247771;23;20003;-84
2022/10/20 09:50:59;;;;;;;18.30;9.15;;;;;;;;;;6247695;22;20516;-84
2022/10/20 09:53:30;;;;;;;9.27;5.30;;;;;;;;;;6247478;23;20438;-84
2022/10/20 09:55:56;;;;;;;5.95;4.20;;;;;;;;;;6247533;23;20075;-85
2022/10/20 09:58:29;;;;;;;6.75;4.07;;;;;;;;;;6247498;23;20031;-84
2022/10/20 10:01:11;;;;;;;6.18;3.92;;;;;;;;;;6247381;22;20051;-87
2022/10/20 10:03:47;;;;;;;5.75;3.95;;;;;;;;;;6247609;23;20004;-83
2022/10/20 10:06:36;;;;;;;6.57;3.80;;;;;;;;;;6247690;23;20023;-82
2022/10/20 10:09:23;;;;;;;5.85;4.13;;;;;;;;;;6248573;23;20427;-81
2022/10/20 10:12:00;;;;;;;6.97;3.90;;;;;;;;;;6248810;22;20012;-88
2022/10/20 10:14:26;;;;;;;5.28;4.05;;;;;;;;;;6247427;23;20000;-86
2022/10/20 10:16:52;;;;;;;4.97;3.70;;;;;;;;;;6247546;23;20027;-85
2022/10/20 10:19:21;;;;;;;12.65;4.18;;;;;;;;;;6247269;23;20004;-78
2022/10/20 10:22:11;;;;;;;4.78;3.50;;;;;;;;;;6247221;22;20000;-78
2022/10/20 10:24:41;;;;;;;4.97;3.40;;;;;;;;;;6247102;23;20039;-79
2022/10/20 10:27:25;;;;;;;6.00;3.95;;;;;;;;;;6247521;23;20088;-81
2022/10/20 10:29:52;;;;;;;5.40;3.53;;;;;;;;;;6247167;23;20407;-80
2022/10/20 10:32:28;;;;;;;4.97;3.72;;;;;;;;;;6220774;23;20050;-87
2022/10/20 10:34:56;;;;;;;6.93;4.00;;;;;;;;;;6248420;23;20330;-80
2022/10/20 10:37:22;;;;;;;6.28;3.58;;;;;;;;;;6247728;23;20061;-80
2022/10/20 10:39:48;;;;;;;4.97;3.50;;;;;;;;;;6247375;23;20083;-81
2022/10/20 10:42:39;;;;;;;5.68;3.53;;;;;;;;;;6246897;22;20429;-83
2022/10/20 10:45:23;;;;;;;6.15;4.00;;;;;;;;;;6247035;23;20012;-81
2022/10/20 10:48:14;;;;;;;6.50;3.67;;;;;;;;;;6247073;23;20031;-82
2022/10/20 10:50:48;;;;;;;5.15;3.65;;;;;;;;;;6246703;22;20357;-86
2022/10/20 10:53:29;;;;;;;4.63;4.00;;;;;;;;;;6247023;23;20415;-87
2022/10/20 10:56:06;;;;;;;6.07;3.85;;;;;;;;;;6247471;23;20004;-89
2022/10/20 10:58:58;;;;;;;4.25;3.72;;;;;;;;;;6247380;23;20046;-77
2022/10/20 11:01:49;;;;;;;7.57;4.50;;;;;;;;;;6246822;22;20011;-75
2022/10/20 11:04:51;;;;;;;5.95;4.18;;;;;;;;;;6246959;23;20007;-79
2022/10/20 11:07:38;;;;;;;6.47;4.03;;;;;;;;;;6246905;23;20467;-78
2022/10/20 11:10:21;;;;;;;6.93;4.18;;;;;;;;;;6246350;22;20076;-81
2022/10/20 11:13:08;;;;;;;6.10;4.22;;;;;;;;;;6246799;23;20027;-76
2022/10/20 11:16:01;;;;;;;7.00;4.18;;;;;;;;;;6246740;23;20004;-80
2022/10/20 11:18:41;;;;;;;6.72;4.45;;;;;;;;;;6246826;23;20000;-80
2022/10/20 11:21:10;;;;;;;7.38;4.50;;;;;;;;;;6246531;22;20008;-77
2022/10/20 11:23:38;;;;;;;11.90;4.70;;;;;;;;;;6246769;23;20026;-79
2022/10/20 11:26:54;;;;;;;8.13;4.60;;;;;;;;;;6246573;23;20348;-74
2022/10/20 11:29:37;;;;;;;6.07;4.25;;;;;;;;;;6163810;23;20008;-76
2022/10/20 11:32:32;;;;;;;6.82;4.53;;;;;;;;;;6246698;22;20004;-86
2022/10/20 11:35:15;;;;;;;7.70;4.70;;;;;;;;;;6246411;23;20309;-77
2022/10/20 11:38:01;;;;;;;9.52;4.53;;;;;;;;;;6246817;23;20083;-86
2022/10/20 11:40:31;;;;;;;5.43;4.38;;;;;;;;;;6246539;22;20054;-78
2022/10/20 11:43:03;;;;;;;;;;;;;;;;;;6247121;23;20386;-77
2022/10/20 11:45:47;;;;;;;6.65;4.70;;;;;;;;;;6246206;23;20315;-77
2022/10/20 11:48:13;;;;;;;6.72;4.90;;;;;;;;;;6246293;23;20000;-89
2022/10/20 16:24:25;;;;;;;11.00;7.90;;;;;;;;;;6212088;23;20016;-84
2022/10/20 16:26:51;;;;;;;11.07;7.50;;;;;;;;;;6216150;23;20119;-82
2022/10/20 16:29:17;;;;;;;9.02;7.68;;;;;;;;;;6215889;23;20004;-81
2022/10/20 16:31:42;;;;;;;10.95;8.20;;;;;;;;;;6215741;23;20001;-82
2022/10/20 16:34:07;;;;;;;11.32;8.75;;;;;;;;;;6215857;23;20087;-81
2022/10/20 16:36:33;;;;;;;10.77;7.78;;;;;;;;;;6216025;23;20028;-81
2022/10/20 16:38:59;;;;;;;10.23;7.70;;;;;;;;;;6216161;23;20000;-81
2022/10/20 16:41:25;;;;;;;15.38;9.27;;;;;;;;;;6215701;23;20005;-80
2022/10/20 16:43:51;;;;;;;12.82;8.48;;;;;;;;;;6215960;23;20011;-79
2022/10/20 16:46:16;;;;;;;10.30;8.00;;;;;;;;;;6215850;23;20050;-80
2022/10/20 16:48:42;;;;;;;10.73;8.65;;;;;;;;;;6216311;23;20005;-80
2022/10/20 16:51:09;;;;;;;12.43;9.50;;;;;;;;;;6215776;23;20083;-80
2022/10/20 16:53:34;;;;;;;12.63;10.68;;;;;;;;;;6216240;23;20367;-80
2022/10/20 16:56:00;;;;;;;14.52;10.43;;;;;;;;;;6215967;23;20035;-80
2022/10/20 16:58:26;;;;;;;13.88;9.98;;;;;;;;;;6215897;23;20090;-80
2022/10/20 17:01:02;;;;;;;11.70;9.48;;;;;;;;;;6216607;23;20004;-86
2022/10/20 17:03:28;;;;;;;14.80;11.13;;;;;;;;;;6216728;23;20004;-87
2022/10/20 17:05:59;;;;;;;12.73;9.13;;;;;;;;;;6215867;23;20001;-86
2022/10/20 17:08:26;;;;;;;10.73;8.68;;;;;;;;;;6216868;23;20120;-86
2022/10/20 17:11:00;;;;;;;9.20;8.13;;;;;;;;;;6217740;23;20004;-80
2022/10/20 17:13:26;;;;;;;10.20;8.07;;;;;;;;;;6190864;23;20011;-81
2022/10/20 17:15:52;;;;;;;9.05;7.65;;;;;;;;;;6192167;23;20004;-85
2022/10/20 17:18:18;;;;;;;9.38;7.95;;;;;;;;;;6191114;23;20371;-83
2022/10/20 17:20:43;;;;;;;8.18;6.95;;;;;;;;;;6217820;23;20007;-82
2022/10/20 17:23:09;;;;;;;10.30;7.72;;;;;;;;;;6217799;23;20004;-81
2022/10/20 17:25:36;;;;;;;10.75;8.88;;;;;;;;;;6246023;23;20012;-81
2022/10/20 17:28:02;;;;;;;9.55;7.75;;;;;;;;;;6247841;23;20039;-81
2022/10/20 17:30:30;;;;;;;10.63;7.32;;;;;;;;;;6248063;22;20423;-85
2022/10/20 17:32:55;;;;;;;10.07;7.90;;;;;;;;;;6221560;23;20015;-85
2022/10/20 17:35:20;;;;;;;13.13;7.28;;;;;;;;;;6221052;23;20387;-82
2022/10/20 17:37:46;;;;;;;9.82;8.48;;;;;;;;;;6247937;23;20004;-87
2022/10/20 17:40:11;;;;;;;10.45;8.18;;;;;;;;;;6248007;22;20327;-86
2022/10/20 17:42:37;;;;;;;11.15;8.10;;;;;;;;;;6222321;23;20004;-86
2022/10/20 17:45:03;;;;;;;9.30;7.40;;;;;;;;;;6222965;23;20015;-86
2022/10/20 17:47:28;;;;;;;9.65;7.50;;;;;;;;;;6222630;23;20047;-83
2022/10/20 17:49:54;;;;;;;9.48;7.93;;;;;;;;;;6248875;22;20324;-84
2022/10/20 17:52:19;;;;;;;8.82;7.32;;;;;;;;;;6248008;23;20004;-80
2022/10/20 17:54:44;;;;;;;11.80;8.60;;;;;;;;;;6248160;23;20000;-79
2022/10/20 17:57:10;;;;;;;12.70;8.55;;;;;;;;;;6248071;23;20070;-84
2022/10/20 17:59:35;;;;;;;11.80;9.00;;;;;;;;;;6248364;23;20083;-83
2022/10/20 18:02:01;;;;;;;9.40;8.43;;;;;;;;;;6248079;22;20000;-84
2022/10/20 18:04:26;;;;;;;11.23;9.07;;;;;;;;;;6247749;23;20107;-82
2022/10/20 18:06:51;;;;;;;11.10;9.00;;;;;;;;;;6248243;23;20004;-83
2022/10/20 18:09:18;;;;;;;12.07;8.90;;;;;;;;;;6247604;23;20083;-81
2022/10/20 18:11:47;;;;;;;11.68;9.05;;;;;;;;;;6247564;22;20000;-87
2022/10/20 18:14:13;;;;;;;10.27;9.10;;;;;;;;;;6248352;23;20003;-87
2022/10/20 18:16:39;;;;;;;10.27;8.50;;;;;;;;;;6247975;23;20000;-83
2022/10/20 18:19:06;;;;;;;9.88;8.13;;;;;;;;;;6248117;23;20000;-81
2022/10/20 18:21:32;;;;;;;9.50;7.85;;;;;;;;;;6220898;23;20008;-83
2022/10/20 18:24:02;;;;;;;10.35;7.80;;;;;;;;;;6248592;23;20088;-78
2022/10/20 18:26:30;;;;;;;10.10;8.60;;;;;;;;;;6223000;23;20008;-75
2022/10/20 18:28:57;;;;;;;11.25;8.13;;;;;;;;;;6247107;23;20465;-73
2022/10/20 18:31:25;;;;;;;10.35;7.90;;;;;;;;;;6247099;22;20011;-73
2022/10/20 18:33:57;;;;;;;9.43;8.07;;;;;;;;;;6247349;23;20012;-73
2022/10/20 18:36:24;;;;;;;11.25;8.43;;;;;;;;;;6247346;23;20075;-73
2022/10/20 18:38:50;;;;;;;10.10;7.90;;;;;;;;;;6247324;23;20010;-82
2022/10/20 18:41:21;;;;;;;10.15;8.45;;;;;;;;;;6247530;22;20483;-79
2022/10/20 18:43:51;;;;;;;10.55;8.77;;;;;;;;;;6247412;23;20007;-79
2022/10/20 18:46:16;;;;;;;10.68;8.63;;;;;;;;;;6247735;23;20000;-82
2022/10/20 18:48:42;;;;;;;9.80;7.95;;;;;;;;;;6247228;23;20023;-80
2022/10/20 18:51:09;;;;;;;12.82;8.75;;;;;;;;;;6248262;22;20008;-82
2022/10/20 18:53:36;;;;;;;12.95;9.07;;;;;;;;;;6247006;23;20004;-81
2022/10/20 18:56:07;;;;;;;10.80;8.68;;;;;;;;;;6247475;23;20087;-80
2022/10/20 18:58:37;;;;;;;11.77;9.30;;;;;;;;;;6246887;23;20004;-82
2022/10/20 19:01:13;;;;;;;12.27;8.35;;;;;;;;;;6219943;23;20069;-82
2022/10/20 19:03:39;;;;;;;12.98;8.43;;;;;;;;;;6247263;23;20011;-80
2022/10/20 19:06:14;;;;;;;8.32;7.43;;;;;;;;;;6246781;23;20028;-80
2022/10/20 19:08:40;;;;;;;10.02;8.02;;;;;;;;;;6247102;23;20000;-79
2022/10/20 19:11:08;;;;;;;10.23;8.07;;;;;;;;;;6246938;22;20331;-80
2022/10/20 19:13:34;;;;;;;13.20;9.35;;;;;;;;;;6246704;23;20446;-80
2022/10/20 19:16:00;;;;;;;11.25;8.77;;;;;;;;;;6247138;23;20004;-80
2022/10/20 19:18:28;;;;;;;9.85;8.23;;;;;;;;;;6219948;23;20003;-82
2022/10/20 19:20:55;;;;;;;12.20;8.30;;;;;;;;;;6246672;22;20122;-81
2022/10/20 19:23:21;;;;;;;9.50;7.70;;;;;;;;;;6219917;23;20004;-81
2022/10/20 19:25:47;;;;;;;9.77;8.27;;;;;;;;;;6246425;23;20016;-81
2022/10/20 19:28:13;;;;;;;12.60;8.50;;;;;;;;;;6246857;23;20004;-81
2022/10/20 19:30:38;;;;;;;11.27;8.93;;;;;;;;;;6246544;22;20416;-81
2022/10/20 19:33:04;;;;;;;9.98;8.73;;;;;;;;;;6246418;23;20008;-81
2022/10/20 19:35:29;;;;;;;11.25;8.98;;;;;;;;;;6246715;23;20008;-81
2022/10/20 19:37:55;;;;;;;12.35;9.02;;;;;;;;;;6247089;23;20004;-83
2022/10/20 19:40:20;;;;;;;10.55;8.27;;;;;;;;;;6194645;23;20008;-81
2022/10/20 19:42:46;;;;;;;11.98;9.48;;;;;;;;;;6246265;23;20000;-81
2022/10/20 19:45:11;;;;;;;10.75;8.90;;;;;;;;;;6246119;23;20026;-81
2022/10/20 19:47:37;;;;;;;12.20;9.02;;;;;;;;;;6246576;23;20004;-80
2022/10/20 19:50:02;;;;;;;11.80;8.88;;;;;;;;;;6246583;22;20014;-81
2022/10/20 19:52:28;;;;;;;9.98;8.52;;;;;;;;;;6246509;23;20000;-80
2022/10/20 19:54:53;;;;;;;12.45;9.02;;;;;;;;;;6246533;23;20004;-80
2022/10/20 19:57:19;;;;;;;12.20;8.93;;;;;;;;;;6246268;23;20082;-80
2022/10/20 19:59:44;;;;;;;11.05;9.10;;;;;;;;;;6246445;23;20411;-79
2022/10/20 20:02:11;;;;;;;13.40;8.88;;;;;;;;;;6246448;22;20004;-80
2022/10/20 20:04:36;;;;;;;11.85;8.63;;;;;;;;;;6246447;23;20062;-79
2022/10/20 20:07:02;;;;;;;11.40;9.45;;;;;;;;;;6246897;23;20054;-80
2022/10/20 20:09:28;;;;;;;11.57;8.75;;;;;;;;;;6246305;23;20028;-80
2022/10/20 20:11:54;;;;;;;12.60;9.15;;;;;;;;;;6219513;23;20015;-79
2022/10/20 20:14:20;;;;;;;11.38;9.05;;;;;;;;;;6218388;23;20391;-78
2022/10/20 20:16:46;;;;;;;11.38;8.95;;;;;;;;;;6246109;23;20000;-80
2022/10/20 20:19:16;;;;;;;11.80;8.55;;;;;;;;;;6246299;23;20010;-79
2022/10/20 20:21:41;;;;;;;9.73;8.73;;;;;;;;;;6246037;22;20040;-79
2022/10/20 20:24:10;;;;;;;10.07;8.05;;;;;;;;;;6245963;23;20012;-84
2022/10/20 20:26:36;;;;;;;14.23;9.73;;;;;;;;;;6219301;23;20001;-79
2022/10/20 20:29:03;;;;;;;11.40;8.95;;;;;;;;;;6246152;23;20005;-83
2022/10/20 20:31:30;;;;;;;13.38;10.18;;;;;;;;;;6245889;22;20000;-80
2022/10/20 20:33:56;;;;;;;13.07;9.05;;;;;;;;;;6245968;23;20004;-83
2022/10/20 20:36:21;;;;;;;13.68;9.80;;;;;;;;;;6246013;23;20030;-82
2022/10/20 20:38:47;;;;;;;11.73;9.30;;;;;;;;;;6246116;23;20008;-83
2022/10/20 20:41:16;;;;;;;10.73;8.82;;;;;;;;;;6245871;22;20011;-79
2022/10/20 20:43:43;;;;;;;14.07;9.38;;;;;;;;;;6246984;23;20004;-79
2022/10/20 20:46:17;;;;;;;10.23;8.73;;;;;;;;;;6247291;23;20000;-80
2022/10/20 20:48:43;;;;;;;11.60;8.68;;;;;;;;;;6248323;23;20070;-81
2022/10/20 20:51:10;;;;;;;12.60;9.77;;;;;;;;;;6247986;22;20420;-79
2022/10/20 20:53:39;;;;;;;11.68;9.57;;;;;;;;;;6248552;23;20008;-80
2022/10/20 20:56:09;;;;;;;;;;;;;;;;;;6222290;23;20008;-84
2022/10/20 20:58:47;;;;;;;16.50;10.32;;;;;;;;;;6221977;23;19978;-82
2022/10/20 21:01:13;;;;;;;15.55;10.40;;;;;;;;;;6221541;23;20008;-80
2022/10/20 21:03:38;;;;;;;13.55;10.25;;;;;;;;;;6220934;23;20008;-80
2022/10/20 21:06:10;;;;;;;14.38;10.32;;;;;;;;;;6248202;23;20471;-83
2022/10/20 21:08:38;;;;;;;15.10;10.20;;;;;;;;;;6221972;23;20054;-84
2022/10/20 21:11:21;;;;;;;9.98;8.88;;;;;;;;;;6222144;23;20367;-83
2022/10/20 21:13:49;;;;;;;11.73;9.05;;;;;;;;;;6222124;23;20431;-79
2022/10/20 21:16:19;;;;;;;14.43;10.65;;;;;;;;;;6222210;23;20015;-84
2022/10/20 21:18:47;;;;;;;14.10;10.52;;;;;;;;;;6249364;23;20054;-81
2022/10/20 21:21:23;;;;;;;12.20;9.70;;;;;;;;;;6221910;23;20044;-84
2022/10/20 21:24:01;;;;;;;13.55;9.73;;;;;;;;;;6218506;23;20009;-82
2022/10/20 21:26:28;;;;;;;12.30;9.45;;;;;;;;;;6222604;23;20011;-80
2022/10/20 21:28:54;;;;;;;10.93;8.43;;;;;;;;;;6221944;23;20011;-83
2022/10/20 21:31:23;;;;;;;11.70;8.63;;;;;;;;;;6222182;23;20340;-79
2022/10/20 21:33:56;;;;;;;12.30;9.63;;;;;;;;;;6249098;23;20071;-82
2022/10/20 21:36:23;;;;;;;13.52;9.20;;;;;;;;;;6222423;23;20031;-79
2022/10/20 21:38:52;;;;;;;11.95;8.57;;;;;;;;;;6249480;23;20001;-80
2022/10/20 21:41:26;;;;;;;12.43;9.40;;;;;;;;;;6222505;23;20000;-82
2022/10/20 21:43:54;;;;;;;13.00;10.50;;;;;;;;;;6224306;23;20331;-84
2022/10/20 21:46:22;;;;;;;12.65;10.63;;;;;;;;;;6224057;23;20027;-82
2022/10/20 21:48:52;;;;;;;15.52;10.85;;;;;;;;;;6222412;23;20004;-83
2022/10/20 21:51:23;;;;;;;15.35;11.15;;;;;;;;;;6222805;23;20390;-79
2022/10/20 21:53:56;;;;;;;15.32;11.07;;;;;;;;;;6222762;23;20000;-82
2022/10/20 21:56:23;;;;;;;15.40;12.18;;;;;;;;;;6222797;23;20000;-79
2022/10/20 21:58:52;;;;;;;14.20;11.07;;;;;;;;;;6250514;23;20007;-82
2022/10/20 22:01:24;;;;;;;13.55;10.48;;;;;;;;;;6248313;22;20312;-78
2022/10/20 22:03:52;;;;;;;13.45;10.07;;;;;;;;;;6221679;23;20032;-83
2022/10/20 22:06:24;;;;;;;12.70;10.35;;;;;;;;;;6220657;23;20012;-83
